sensor_id;sensor_type;location;lat;lon;timestamp;pressure;altitude;pressure_sealevel;temperature;humidity
13867;BME280;7003;46.982;15.248;2022-12-20T00:01:06;98507.88;;;-2.12;100.00
13867;BME280;7003;46.982;15.248;2022-12-20T00:03:33;98507.84;;;-2.05;100.00
13867;BME280;7003;46.982;15.248;2022-12-20T00:06:05;98509.63;;;-2.06;100.00
13867;BME280;7003;46.982;15.248;2022-12-20T00:08:32;98509.69;;;-2.12;100.00
13867;BME280;7003;46.982;15.248;2022-12-20T00:11:05;98501.22;;;-2.08;100.00
13867;BME280;7003;46.982;15.248;2022-12-20T00:13:33;98497.81;;;-2.08;100.00
13867;BME280;7003;46.982;15.248;2022-12-20T00:16:05;98506.69;;;-2.09;100.00
13867;BME280;7003;46.982;15.248;2022-12-20T00:18:33;98498.06;;;-2.10;100.00
13867;BME280;7003;46.982;15.248;2022-12-20T00:21:04;98496.44;;;-2.11;100.00
13867;BME280;7003;46.982;15.248;2022-12-20T00:23:32;98498.06;;;-2.10;100.00
13867;BME280;7003;46.982;15.248;2022-12-20T00:26:00;98503.03;;;-2.08;100.00
13867;BME280;7003;46.982;15.248;2022-12-20T00:28:27;98504.44;;;-2.06;100.00
13867;BME280;7003;46.982;15.248;2022-12-20T00:30:57;98501.97;;;-2.01;100.00
13867;BME280;7003;46.982;15.248;2022-12-20T00:33:25;98497.69;;;-1.88;100.00
13867;BME280;7003;46.982;15.248;2022-12-20T00:35:53;98495.13;;;-1.95;100.00
13867;BME280;7003;46.982;15.248;2022-12-20T00:38:23;98486.94;;;-1.99;100.00
13867;BME280;7003;46.982;15.248;2022-12-20T00:41:00;98486.34;;;-2.01;100.00
13867;BME280;7003;46.982;15.248;2022-12-20T00:43:29;98481.25;;;-1.89;100.00
13867;BME280;7003;46.982;15.248;2022-12-20T00:45:57;98484.78;;;-2.08;100.00
13867;BME280;7003;46.982;15.248;2022-12-20T00:48:28;98484.41;;;-2.12;100.00
13867;BME280;7003;46.982;15.248;2022-12-20T00:50:58;98475.25;;;-2.21;100.00
13867;BME280;7003;46.982;15.248;2022-12-20T00:53:30;98479.47;;;-2.20;100.00
13867;BME280;7003;46.982;15.248;2022-12-20T00:55:58;98476.84;;;-2.20;100.00
13867;BME280;7003;46.982;15.248;2022-12-20T00:58:30;98479.63;;;-2.15;100.00
13867;BME280;7003;46.982;15.248;2022-12-20T01:00:58;98482.22;;;-2.15;100.00
13867;BME280;7003;46.982;15.248;2022-12-20T01:03:28;98478.00;;;-2.16;100.00
13867;BME280;7003;46.982;15.248;2022-12-20T01:05:57;98476.00;;;-2.14;100.00
13867;BME280;7003;46.982;15.248;2022-12-20T01:08:30;98467.97;;;-2.12;100.00
13867;BME280;7003;46.982;15.248;2022-12-20T01:10:58;98458.75;;;-2.15;100.00
13867;BME280;7003;46.982;15.248;2022-12-20T01:13:26;98469.19;;;-2.15;100.00
13867;BME280;7003;46.982;15.248;2022-12-20T01:15:57;98478.00;;;-2.16;100.00
13867;BME280;7003;46.982;15.248;2022-12-20T01:18:33;98474.00;;;-2.12;100.00
13867;BME280;7003;46.982;15.248;2022-12-20T01:21:02;98470.19;;;-2.09;100.00
13867;BME280;7003;46.982;15.248;2022-12-20T01:23:36;98460.75;;;-2.10;100.00
13867;BME280;7003;46.982;15.248;2022-12-20T01:26:07;98459.94;;;-2.11;100.00
13867;BME280;7003;46.982;15.248;2022-12-20T01:28:37;98460.16;;;-2.12;100.00
13867;BME280;7003;46.982;15.248;2022-12-20T01:31:05;98461.56;;;-2.10;100.00
13867;BME280;7003;46.982;15.248;2022-12-20T01:33:33;98457.16;;;-2.09;100.00
13867;BME280;7003;46.982;15.248;2022-12-20T01:36:02;98448.66;;;-2.05;100.00
13867;BME280;7003;46.982;15.248;2022-12-20T01:38:31;98450.69;;;-2.07;100.00
13867;BME280;7003;46.982;15.248;2022-12-20T01:41:02;98447.06;;;-2.06;100.00
13867;BME280;7003;46.982;15.248;2022-12-20T01:43:46;98445.84;;;-2.03;100.00
13867;BME280;7003;46.982;15.248;2022-12-20T01:46:14;98442.00;;;-2.01;100.00
13867;BME280;7003;46.982;15.248;2022-12-20T01:48:48;98434.63;;;-2.04;100.00
13867;BME280;7003;46.982;15.248;2022-12-20T01:51:17;98426.75;;;-1.97;100.00
13867;BME280;7003;46.982;15.248;2022-12-20T01:53:46;98433.34;;;-1.95;100.00
13867;BME280;7003;46.982;15.248;2022-12-20T01:56:14;98427.75;;;-1.98;100.00
13867;BME280;7003;46.982;15.248;2022-12-20T01:58:42;98426.38;;;-2.01;100.00
13867;BME280;7003;46.982;15.248;2022-12-20T02:01:16;98422.13;;;-1.95;100.00
13867;BME280;7003;46.982;15.248;2022-12-20T02:03:46;98417.53;;;-2.00;100.00
13867;BME280;7003;46.982;15.248;2022-12-20T02:06:17;98420.34;;;-2.01;100.00
13867;BME280;7003;46.982;15.248;2022-12-20T02:08:45;98410.97;;;-2.09;100.00
13867;BME280;7003;46.982;15.248;2022-12-20T02:11:36;98412.59;;;-2.08;100.00
13867;BME280;7003;46.982;15.248;2022-12-20T02:14:14;98410.63;;;-2.12;100.00
13867;BME280;7003;46.982;15.248;2022-12-20T02:16:57;98406.81;;;-2.10;100.00
13867;BME280;7003;46.982;15.248;2022-12-20T02:19:53;98413.03;;;-2.11;100.00
13867;BME280;7003;46.982;15.248;2022-12-20T02:22:29;98398.81;;;-2.15;100.00
13867;BME280;7003;46.982;15.248;2022-12-20T02:25:26;98393.78;;;-2.10;100.00
13867;BME280;7003;46.982;15.248;2022-12-20T02:28:06;98398.91;;;-2.28;100.00
13867;BME280;7003;46.982;15.248;2022-12-20T02:30:41;98396.72;;;-2.31;100.00
13867;BME280;7003;46.982;15.248;2022-12-20T02:33:11;98389.03;;;-2.19;100.00
13867;BME280;7003;46.982;15.248;2022-12-20T02:35:39;98387.09;;;-2.30;100.00
13867;BME280;7003;46.982;15.248;2022-12-20T02:38:25;98376.31;;;-2.34;100.00
13867;BME280;7003;46.982;15.248;2022-12-20T02:40:55;98368.31;;;-2.39;100.00
13867;BME280;7003;46.982;15.248;2022-12-20T02:43:27;98376.41;;;-2.47;100.00
13867;BME280;7003;46.982;15.248;2022-12-20T02:46:19;98377.00;;;-2.45;100.00
13867;BME280;7003;46.982;15.248;2022-12-20T02:48:50;98377.16;;;-2.40;100.00
13867;BME280;7003;46.982;15.248;2022-12-20T02:51:22;98363.28;;;-2.34;100.00
13867;BME280;7003;46.982;15.248;2022-12-20T02:53:52;98367.50;;;-2.33;100.00
13867;BME280;7003;46.982;15.248;2022-12-20T02:56:25;98370.25;;;-2.28;100.00
13867;BME280;7003;46.982;15.248;2022-12-20T02:59:01;98362.38;;;-2.46;100.00
13867;BME280;7003;46.982;15.248;2022-12-20T03:01:36;98358.69;;;-2.39;100.00
13867;BME280;7003;46.982;15.248;2022-12-20T03:04:05;98354.28;;;-2.38;100.00
13867;BME280;7003;46.982;15.248;2022-12-20T03:06:33;98358.66;;;-2.32;100.00
13867;BME280;7003;46.982;15.248;2022-12-20T03:09:01;98353.81;;;-2.28;100.00
13867;BME280;7003;46.982;15.248;2022-12-20T03:11:31;98353.16;;;-2.24;100.00
13867;BME280;7003;46.982;15.248;2022-12-20T03:13:58;98355.16;;;-2.19;100.00
13867;BME280;7003;46.982;15.248;2022-12-20T03:16:29;98364.63;;;-2.25;100.00
13867;BME280;7003;46.982;15.248;2022-12-20T03:18:59;98355.25;;;-2.33;100.00
13867;BME280;7003;46.982;15.248;2022-12-20T03:21:30;98352.41;;;-2.31;100.00
13867;BME280;7003;46.982;15.248;2022-12-20T03:23:59;98347.81;;;-2.29;100.00
13867;BME280;7003;46.982;15.248;2022-12-20T03:26:26;98340.09;;;-2.17;100.00
13867;BME280;7003;46.982;15.248;2022-12-20T03:28:56;98344.19;;;-2.28;100.00
13867;BME280;7003;46.982;15.248;2022-12-20T03:31:24;98340.56;;;-2.27;100.00
13867;BME280;7003;46.982;15.248;2022-12-20T03:33:53;98331.31;;;-2.23;100.00
13867;BME280;7003;46.982;15.248;2022-12-20T03:36:22;98332.91;;;-2.22;100.00
13867;BME280;7003;46.982;15.248;2022-12-20T03:38:49;98343.00;;;-2.32;100.00
13867;BME280;7003;46.982;15.248;2022-12-20T03:41:20;98334.41;;;-2.33;100.00
13867;BME280;7003;46.982;15.248;2022-12-20T03:43:48;98337.78;;;-2.32;100.00
13867;BME280;7003;46.982;15.248;2022-12-20T03:46:15;98332.28;;;-2.42;100.00
13867;BME280;7003;46.982;15.248;2022-12-20T03:48:43;98329.81;;;-2.37;100.00
13867;BME280;7003;46.982;15.248;2022-12-20T03:51:12;98332.59;;;-2.32;100.00
13867;BME280;7003;46.982;15.248;2022-12-20T03:53:43;98329.41;;;-2.34;100.00
13867;BME280;7003;46.982;15.248;2022-12-20T03:56:10;98327.69;;;-2.22;100.00
13867;BME280;7003;46.982;15.248;2022-12-20T03:58:38;98321.75;;;-2.29;100.00
13867;BME280;7003;46.982;15.248;2022-12-20T04:01:16;98318.47;;;-2.43;100.00
13867;BME280;7003;46.982;15.248;2022-12-20T04:03:44;98322.41;;;-2.15;100.00
13867;BME280;7003;46.982;15.248;2022-12-20T04:06:11;98326.16;;;-2.29;100.00
13867;BME280;7003;46.982;15.248;2022-12-20T04:08:40;98332.59;;;-2.32;100.00
13867;BME280;7003;46.982;15.248;2022-12-20T04:11:12;98325.06;;;-2.40;100.00
13867;BME280;7003;46.982;15.248;2022-12-20T04:13:42;98341.78;;;-2.29;100.00
13867;BME280;7003;46.982;15.248;2022-12-20T04:16:13;98336.22;;;-2.33;100.00
13867;BME280;7003;46.982;15.248;2022-12-20T04:18:41;98337.50;;;-2.42;100.00
13867;BME280;7003;46.982;15.248;2022-12-20T04:21:10;98336.50;;;-2.41;100.00
13867;BME280;7003;46.982;15.248;2022-12-20T04:23:38;98330.84;;;-2.38;100.00
13867;BME280;7003;46.982;15.248;2022-12-20T04:26:08;98325.81;;;-2.33;100.00
13867;BME280;7003;46.982;15.248;2022-12-20T04:28:37;98327.44;;;-2.39;100.00
13867;BME280;7003;46.982;15.248;2022-12-20T04:31:05;98322.66;;;-2.42;100.00
13867;BME280;7003;46.982;15.248;2022-12-20T04:33:33;98316.66;;;-2.42;100.00
13867;BME280;7003;46.982;15.248;2022-12-20T04:36:04;98312.59;;;-2.38;100.00
13867;BME280;7003;46.982;15.248;2022-12-20T04:38:31;98324.19;;;-2.34;100.00
13867;BME280;7003;46.982;15.248;2022-12-20T04:40:59;98323.69;;;-2.24;100.00
13867;BME280;7003;46.982;15.248;2022-12-20T04:43:26;98312.06;;;-2.22;100.00
13867;BME280;7003;46.982;15.248;2022-12-20T04:45:55;98308.72;;;-2.29;100.00
13867;BME280;7003;46.982;15.248;2022-12-20T04:48:30;98313.13;;;-2.29;100.00
13867;BME280;7003;46.982;15.248;2022-12-20T04:50:57;98314.34;;;-2.32;100.00
13867;BME280;7003;46.982;15.248;2022-12-20T04:53:28;98318.66;;;-2.44;100.00
13867;BME280;7003;46.982;15.248;2022-12-20T04:56:18;98318.50;;;-2.49;100.00
13867;BME280;7003;46.982;15.248;2022-12-20T04:58:50;98307.63;;;-2.64;100.00
13867;BME280;7003;46.982;15.248;2022-12-20T05:01:19;98306.44;;;-2.44;100.00
13867;BME280;7003;46.982;15.248;2022-12-20T05:03:49;98308.25;;;-2.44;100.00
13867;BME280;7003;46.982;15.248;2022-12-20T05:06:16;98314.38;;;-2.57;100.00
13867;BME280;7003;46.982;15.248;2022-12-20T05:08:44;98300.81;;;-2.65;100.00
13867;BME280;7003;46.982;15.248;2022-12-20T05:11:13;98304.34;;;-2.60;100.00
13867;BME280;7003;46.982;15.248;2022-12-20T05:13:40;98297.41;;;-2.41;100.00
13867;BME280;7003;46.982;15.248;2022-12-20T05:16:09;98297.13;;;-2.58;100.00
13867;BME280;7003;46.982;15.248;2022-12-20T05:18:41;98301.09;;;-2.55;100.00
13867;BME280;7003;46.982;15.248;2022-12-20T05:21:08;98304.91;;;-2.51;100.00
13867;BME280;7003;46.982;15.248;2022-12-20T05:23:52;98296.34;;;-2.58;100.00
13867;BME280;7003;46.982;15.248;2022-12-20T05:26:37;98292.03;;;-2.71;100.00
13867;BME280;7003;46.982;15.248;2022-12-20T05:29:07;98296.75;;;-2.61;100.00
13867;BME280;7003;46.982;15.248;2022-12-20T05:31:36;98295.13;;;-2.56;100.00
13867;BME280;7003;46.982;15.248;2022-12-20T05:34:04;98298.75;;;-2.57;100.00
13867;BME280;7003;46.982;15.248;2022-12-20T05:36:31;98294.84;;;-2.73;100.00
13867;BME280;7003;46.982;15.248;2022-12-20T05:39:01;98299.31;;;-2.80;100.00
13867;BME280;7003;46.982;15.248;2022-12-20T05:41:30;98302.47;;;-2.71;100.00
13867;BME280;7003;46.982;15.248;2022-12-20T05:44:00;98301.00;;;-2.67;100.00
13867;BME280;7003;46.982;15.248;2022-12-20T05:46:27;98294.66;;;-2.78;100.00
13867;BME280;7003;46.982;15.248;2022-12-20T05:48:54;98291.19;;;-2.65;100.00
13867;BME280;7003;46.982;15.248;2022-12-20T05:51:23;98294.00;;;-2.66;100.00
13867;BME280;7003;46.982;15.248;2022-12-20T05:53:54;98284.16;;;-2.64;100.00
13867;BME280;7003;46.982;15.248;2022-12-20T05:56:24;98279.97;;;-2.65;100.00
13867;BME280;7003;46.982;15.248;2022-12-20T05:58:51;98272.44;;;-2.55;100.00
13867;BME280;7003;46.982;15.248;2022-12-20T06:01:23;98271.72;;;-2.62;100.00
13867;BME280;7003;46.982;15.248;2022-12-20T06:03:51;98271.28;;;-2.59;100.00
13867;BME280;7003;46.982;15.248;2022-12-20T06:06:18;98273.03;;;-2.53;100.00
13867;BME280;7003;46.982;15.248;2022-12-20T06:08:47;98266.75;;;-2.64;100.00
13867;BME280;7003;46.982;15.248;2022-12-20T06:11:17;98272.44;;;-2.55;100.00
13867;BME280;7003;46.982;15.248;2022-12-20T06:13:46;98271.03;;;-2.51;100.00
13867;BME280;7003;46.982;15.248;2022-12-20T06:16:13;98265.09;;;-2.58;100.00
13867;BME280;7003;46.982;15.248;2022-12-20T06:18:41;98264.00;;;-2.51;100.00
13867;BME280;7003;46.982;15.248;2022-12-20T06:21:08;98269.69;;;-2.36;100.00
13867;BME280;7003;46.982;15.248;2022-12-20T06:23:35;98268.28;;;-2.56;100.00
13867;BME280;7003;46.982;15.248;2022-12-20T06:26:04;98268.75;;;-2.66;100.00
13867;BME280;7003;46.982;15.248;2022-12-20T06:28:40;98270.28;;;-2.58;100.00
13867;BME280;7003;46.982;15.248;2022-12-20T06:31:09;98280.28;;;-2.55;100.00
13867;BME280;7003;46.982;15.248;2022-12-20T06:33:37;98275.34;;;-2.63;100.00
13867;BME280;7003;46.982;15.248;2022-12-20T06:36:04;98280.19;;;-2.67;100.00
13867;BME280;7003;46.982;15.248;2022-12-20T06:38:32;98280.38;;;-2.68;100.00
13867;BME280;7003;46.982;15.248;2022-12-20T06:40:59;98290.84;;;-2.75;100.00
13867;BME280;7003;46.982;15.248;2022-12-20T06:43:28;98284.44;;;-2.73;100.00
13867;BME280;7003;46.982;15.248;2022-12-20T06:45:56;98279.31;;;-2.61;100.00
13867;BME280;7003;46.982;15.248;2022-12-20T06:48:26;98281.38;;;-2.45;100.00
13867;BME280;7003;46.982;15.248;2022-12-20T06:50:54;98282.38;;;-2.64;100.00
13867;BME280;7003;46.982;15.248;2022-12-20T06:53:21;98285.38;;;-2.67;100.00
13867;BME280;7003;46.982;15.248;2022-12-20T06:55:49;98289.94;;;-2.62;100.00
13867;BME280;7003;46.982;15.248;2022-12-20T06:58:17;98279.59;;;-2.69;100.00
13867;BME280;7003;46.982;15.248;2022-12-20T07:00:46;98284.44;;;-2.73;100.00
13867;BME280;7003;46.982;15.248;2022-12-20T07:03:17;98278.78;;;-2.69;100.00
13867;BME280;7003;46.982;15.248;2022-12-20T07:05:50;98279.63;;;-2.76;100.00
13867;BME280;7003;46.982;15.248;2022-12-20T07:08:18;98277.03;;;-2.76;100.00
13867;BME280;7003;46.982;15.248;2022-12-20T07:10:46;98280.00;;;-2.47;100.00
13867;BME280;7003;46.982;15.248;2022-12-20T07:13:17;98277.63;;;-2.74;100.00
13867;BME280;7003;46.982;15.248;2022-12-20T07:15:57;98276.25;;;-2.51;100.00
13867;BME280;7003;46.982;15.248;2022-12-20T07:18:25;98279.25;;;-2.54;100.00
13867;BME280;7003;46.982;15.248;2022-12-20T07:20:53;98283.44;;;-2.78;100.00
13867;BME280;7003;46.982;15.248;2022-12-20T07:23:25;98278.78;;;-2.69;100.00
13867;BME280;7003;46.982;15.248;2022-12-20T07:25:56;98277.44;;;-2.79;100.00
13867;BME280;7003;46.982;15.248;2022-12-20T07:28:27;98283.72;;;-2.86;100.00
13867;BME280;7003;46.982;15.248;2022-12-20T07:31:02;98293.34;;;-2.87;100.00
13867;BME280;7003;46.982;15.248;2022-12-20T07:33:31;98294.75;;;-2.59;100.00
13867;BME280;7003;46.982;15.248;2022-12-20T07:36:00;98295.34;;;-2.57;100.00
13867;BME280;7003;46.982;15.248;2022-12-20T07:38:32;98294.75;;;-2.59;100.00
13867;BME280;7003;46.982;15.248;2022-12-20T07:41:01;98277.66;;;-2.55;100.00
13867;BME280;7003;46.982;15.248;2022-12-20T07:43:33;98272.19;;;-2.47;100.00
13867;BME280;7003;46.982;15.248;2022-12-20T07:46:05;98273.84;;;-2.53;100.00
13867;BME280;7003;46.982;15.248;2022-12-20T07:48:34;98276.66;;;-2.54;100.00
13867;BME280;7003;46.982;15.248;2022-12-20T07:51:05;98283.06;;;-2.50;100.00
13867;BME280;7003;46.982;15.248;2022-12-20T07:53:37;98276.31;;;-2.58;100.00
13867;BME280;7003;46.982;15.248;2022-12-20T07:56:07;98272.75;;;-2.63;100.00
13867;BME280;7003;46.982;15.248;2022-12-20T07:58:40;98264.94;;;-2.63;100.00
13867;BME280;7003;46.982;15.248;2022-12-20T08:01:11;98267.91;;;-2.60;100.00
13867;BME280;7003;46.982;15.248;2022-12-20T08:03:44;98276.09;;;-2.56;100.00
13867;BME280;7003;46.982;15.248;2022-12-20T08:06:16;98275.38;;;-2.45;100.00
13867;BME280;7003;46.982;15.248;2022-12-20T08:08:48;98277.13;;;-2.39;100.00
13867;BME280;7003;46.982;15.248;2022-12-20T08:11:17;98274.69;;;-2.34;100.00
13867;BME280;7003;46.982;15.248;2022-12-20T08:13:48;98272.09;;;-2.34;100.00
13867;BME280;7003;46.982;15.248;2022-12-20T08:16:21;98270.03;;;-2.32;100.00
13867;BME280;7003;46.982;15.248;2022-12-20T08:18:49;98271.78;;;-2.44;100.00
13867;BME280;7003;46.982;15.248;2022-12-20T08:21:19;98275.03;;;-2.49;100.00
13867;BME280;7003;46.982;15.248;2022-12-20T08:23:50;98271.63;;;-2.49;100.00
13867;BME280;7003;46.982;15.248;2022-12-20T08:26:20;98264.75;;;-2.44;100.00
13867;BME280;7003;46.982;15.248;2022-12-20T08:28:50;98261.50;;;-2.39;100.00
13867;BME280;7003;46.982;15.248;2022-12-20T08:31:20;98264.81;;;-2.32;100.00
13867;BME280;7003;46.982;15.248;2022-12-20T08:33:49;98259.19;;;-2.29;100.00
13867;BME280;7003;46.982;15.248;2022-12-20T08:36:16;98260.06;;;-2.35;100.00
13867;BME280;7003;46.982;15.248;2022-12-20T08:38:47;98267.53;;;-2.63;100.00
13867;BME280;7003;46.982;15.248;2022-12-20T08:41:15;98271.34;;;-2.41;100.00
13867;BME280;7003;46.982;15.248;2022-12-20T08:43:46;98264.06;;;-2.57;100.00
13867;BME280;7003;46.982;15.248;2022-12-20T08:46:15;98270.41;;;-2.72;100.00
13867;BME280;7003;46.982;15.248;2022-12-20T08:48:46;98261.75;;;-2.65;100.00
13867;BME280;7003;46.982;15.248;2022-12-20T08:51:15;98264.75;;;-2.68;100.00
13867;BME280;7003;46.982;15.248;2022-12-20T08:53:45;98266.56;;;-2.44;100.00
13867;BME280;7003;46.982;15.248;2022-12-20T08:56:15;98260.03;;;-2.53;100.00
13867;BME280;7003;46.982;15.248;2022-12-20T08:58:46;98248.81;;;-2.54;100.00
13867;BME280;7003;46.982;15.248;2022-12-20T09:01:16;98251.63;;;-2.55;100.00
13867;BME280;7003;46.982;15.248;2022-12-20T09:03:46;98256.09;;;-2.62;100.00
13867;BME280;7003;46.982;15.248;2022-12-20T09:06:18;98250.88;;;-2.62;100.00
13867;BME280;7003;46.982;15.248;2022-12-20T09:08:49;98247.44;;;-2.56;100.00
13867;BME280;7003;46.982;15.248;2022-12-20T09:11:19;98239.84;;;-2.58;100.00
13867;BME280;7003;46.982;15.248;2022-12-20T09:13:52;98242.22;;;-2.56;100.00
13867;BME280;7003;46.982;15.248;2022-12-20T09:16:22;98244.03;;;-2.57;100.00
13867;BME280;7003;46.982;15.248;2022-12-20T09:18:56;98248.31;;;-2.44;100.00
13867;BME280;7003;46.982;15.248;2022-12-20T09:21:27;98240.44;;;-2.81;100.00
13867;BME280;7003;46.982;15.248;2022-12-20T09:23:56;98235.47;;;-2.64;100.00
13867;BME280;7003;46.982;15.248;2022-12-20T09:26:27;98237.84;;;-2.62;100.00
13867;BME280;7003;46.982;15.248;2022-12-20T09:28:55;98237.97;;;-2.76;100.00
13867;BME280;7003;46.982;15.248;2022-12-20T09:31:24;98239.03;;;-2.58;100.00
13867;BME280;7003;46.982;15.248;2022-12-20T09:33:55;98232.75;;;-2.76;100.00
13867;BME280;7003;46.982;15.248;2022-12-20T09:36:24;98228.69;;;-2.65;100.00
13867;BME280;7003;46.982;15.248;2022-12-20T09:38:55;98232.38;;;-2.54;100.00
13867;BME280;7003;46.982;15.248;2022-12-20T09:41:28;98221.59;;;-2.40;100.00
13867;BME280;7003;46.982;15.248;2022-12-20T09:44:06;98224.00;;;-2.38;100.00
13867;BME280;7003;46.982;15.248;2022-12-20T09:46:40;98222.00;;;-2.36;100.00
13867;BME280;7003;46.982;15.248;2022-12-20T09:49:14;98223.91;;;-2.25;100.00
13867;BME280;7003;46.982;15.248;2022-12-20T09:54:40;98210.84;;;-2.43;100.00
13867;BME280;7003;46.982;15.248;2022-12-20T09:57:21;98211.44;;;-2.41;100.00
13867;BME280;7003;46.982;15.248;2022-12-20T09:59:55;98210.25;;;-2.45;100.00
13867;BME280;7003;46.982;15.248;2022-12-20T10:02:24;98206.78;;;-2.39;100.00
13867;BME280;7003;46.982;15.248;2022-12-20T10:04:56;98204.34;;;-2.34;100.00
13867;BME280;7003;46.982;15.248;2022-12-20T10:07:33;98209.78;;;-2.17;100.00
13867;BME280;7003;46.982;15.248;2022-12-20T10:13:09;98205.78;;;-2.20;100.00
13867;BME280;7003;46.982;15.248;2022-12-20T10:15:46;98207.38;;;-2.19;100.00
13867;BME280;7003;46.982;15.248;2022-12-20T10:18:30;98200.66;;;-2.26;100.00
13867;BME280;7003;46.982;15.248;2022-12-20T10:21:12;98198.59;;;-2.24;100.00
13867;BME280;7003;46.982;15.248;2022-12-20T10:23:50;98191.28;;;-2.16;100.00
13867;BME280;7003;46.982;15.248;2022-12-20T10:26:22;98188.38;;;-2.08;100.00
13867;BME280;7003;46.982;15.248;2022-12-20T10:28:52;98188.13;;;-2.18;100.00
13867;BME280;7003;46.982;15.248;2022-12-20T10:31:23;98184.19;;;-2.09;100.00
13867;BME280;7003;46.982;15.248;2022-12-20T10:33:51;98172.53;;;-2.06;100.00
13867;BME280;7003;46.982;15.248;2022-12-20T10:36:26;98175.53;;;-2.03;100.00
13867;BME280;7003;46.982;15.248;2022-12-20T10:38:55;98167.19;;;-2.11;100.00
13867;BME280;7003;46.982;15.248;2022-12-20T10:41:25;98162.78;;;-2.11;100.00
13867;BME280;7003;46.982;15.248;2022-12-20T10:43:56;98159.88;;;-2.21;100.00
13867;BME280;7003;46.982;15.248;2022-12-20T10:46:34;98150.31;;;-2.09;100.00
13867;BME280;7003;46.982;15.248;2022-12-20T10:49:20;98136.25;;;-2.08;100.00
13867;BME280;7003;46.982;15.248;2022-12-20T10:51:53;98140.25;;;-2.05;100.00
13867;BME280;7003;46.982;15.248;2022-12-20T10:54:27;98129.31;;;-1.96;100.00
13867;BME280;7003;46.982;15.248;2022-12-20T10:56:59;98136.25;;;-2.08;100.00
13867;BME280;7003;46.982;15.248;2022-12-20T10:59:32;98131.75;;;-2.01;100.00
13867;BME280;7003;46.982;15.248;2022-12-20T11:02:24;98122.91;;;-2.00;100.00
13867;BME280;7003;46.982;15.248;2022-12-20T11:04:58;98120.69;;;-1.96;100.00
13867;BME280;7003;46.982;15.248;2022-12-20T11:07:33;98114.78;;;-1.91;100.00
13867;BME280;7003;46.982;15.248;2022-12-20T11:10:16;98112.97;;;-1.91;100.00
13867;BME280;7003;46.982;15.248;2022-12-20T11:12:52;98106.88;;;-1.85;100.00
13867;BME280;7003;46.982;15.248;2022-12-20T11:15:22;98104.53;;;-1.75;100.00
13867;BME280;7003;46.982;15.248;2022-12-20T11:17:55;98102.94;;;-1.76;100.00
13867;BME280;7003;46.982;15.248;2022-12-20T11:20:31;98097.31;;;-2.03;100.00
13867;BME280;7003;46.982;15.248;2022-12-20T11:23:10;98096.94;;;-2.06;100.00
13867;BME280;7003;46.982;15.248;2022-12-20T11:25:56;98087.56;;;-2.25;100.00
13867;BME280;7003;46.982;15.248;2022-12-20T11:28:42;98081.88;;;-2.34;100.00
13867;BME280;7003;46.982;15.248;2022-12-20T11:31:19;98080.06;;;-2.34;100.00
13867;BME280;7003;46.982;15.248;2022-12-20T11:33:58;98080.41;;;-2.30;100.00
13867;BME280;7003;46.982;15.248;2022-12-20T11:36:39;98072.50;;;-2.23;100.00
13867;BME280;7003;46.982;15.248;2022-12-20T11:39:20;98070.34;;;-2.26;100.00
13867;BME280;7003;46.982;15.248;2022-12-20T11:42:01;98069.47;;;-2.20;100.00
13867;BME280;7003;46.982;15.248;2022-12-20T11:44:48;98067.78;;;-2.15;100.00
13867;BME280;7003;46.982;15.248;2022-12-20T11:47:42;98059.22;;;-2.04;100.00
13867;BME280;7003;46.982;15.248;2022-12-20T11:50:39;98060.19;;;-1.86;100.00
13867;BME280;7003;46.982;15.248;2022-12-20T11:53:15;98054.28;;;-1.82;100.00
13867;BME280;7003;46.982;15.248;2022-12-20T11:55:51;98059.28;;;-1.80;100.00
13867;BME280;7003;46.982;15.248;2022-12-20T11:58:24;98054.06;;;-1.80;100.00
13867;BME280;7003;46.982;15.248;2022-12-20T12:00:56;98043.50;;;-1.85;100.00
13867;BME280;7003;46.982;15.248;2022-12-20T12:03:33;98042.84;;;-1.69;100.00
13867;BME280;7003;46.982;15.248;2022-12-20T12:06:06;98046.75;;;-2.02;100.00
13867;BME280;7003;46.982;15.248;2022-12-20T12:08:41;98043.38;;;-1.90;100.00
13867;BME280;7003;46.982;15.248;2022-12-20T12:11:16;98046.56;;;-1.88;100.00
13867;BME280;7003;46.982;15.248;2022-12-20T12:13:48;98048.38;;;-1.89;100.00
13867;BME280;7003;46.982;15.248;2022-12-20T12:16:19;98038.19;;;-1.79;100.00
13867;BME280;7003;46.982;15.248;2022-12-20T12:18:51;98039.56;;;-1.76;100.00
13867;BME280;7003;46.982;15.248;2022-12-20T12:21:23;98043.06;;;-1.82;100.00
13867;BME280;7003;46.982;15.248;2022-12-20T12:24:00;98029.47;;;-1.73;100.00
13867;BME280;7003;46.982;15.248;2022-12-20T12:26:32;98041.94;;;-1.75;100.00
13867;BME280;7003;46.982;15.248;2022-12-20T12:29:09;98034.91;;;-1.74;100.00
13867;BME280;7003;46.982;15.248;2022-12-20T12:31:42;98026.50;;;-1.76;100.00
13867;BME280;7003;46.982;15.248;2022-12-20T12:34:29;98033.00;;;-1.67;100.00
13867;BME280;7003;46.982;15.248;2022-12-20T12:37:23;98027.44;;;-1.71;100.00
13867;BME280;7003;46.982;15.248;2022-12-20T12:43:08;98016.22;;;-1.71;100.00
13867;BME280;7003;46.982;15.248;2022-12-20T12:45:43;98026.66;;;-1.71;100.00
13867;BME280;7003;46.982;15.248;2022-12-20T12:48:16;98026.66;;;-1.71;100.00
13867;BME280;7003;46.982;15.248;2022-12-20T12:50:49;98028.09;;;-1.75;100.00
13867;BME280;7003;46.982;15.248;2022-12-20T12:53:21;98030.28;;;-1.72;100.00
13867;BME280;7003;46.982;15.248;2022-12-20T12:55:51;98035.28;;;-1.71;100.00
13867;BME280;7003;46.982;15.248;2022-12-20T12:58:34;98031.41;;;-1.68;100.00
13867;BME280;7003;46.982;15.248;2022-12-20T13:01:08;98030.28;;;-1.72;100.00
13867;BME280;7003;46.982;15.248;2022-12-20T13:03:42;98025.16;;;-1.79;100.00
13867;BME280;7003;46.982;15.248;2022-12-20T13:06:42;98028.78;;;-1.80;100.00
13867;BME280;7003;46.982;15.248;2022-12-20T13:09:20;98032.78;;;-1.66;100.00
13867;BME280;7003;46.982;15.248;2022-12-20T13:11:49;98032.78;;;-1.66;100.00
13867;BME280;7003;46.982;15.248;2022-12-20T13:14:50;98028.69;;;-1.73;100.00
13867;BME280;7003;46.982;15.248;2022-12-20T13:17:51;98031.28;;;-1.73;100.00
13867;BME280;7003;46.982;15.248;2022-12-20T13:20:22;98029.38;;;-1.66;100.00
13867;BME280;7003;46.982;15.248;2022-12-20T13:23:13;98021.88;;;-1.74;100.00
13867;BME280;7003;46.982;15.248;2022-12-20T13:25:47;98029.47;;;-1.73;100.00